sensor_id;sensor_type;location;lat;lon;timestamp;P1;P2;P0
14880;PMS7003;7533;51.278;12.588;2022-08-21T00:04:40;34.20;28.60;18.80
14880;PMS7003;7533;51.278;12.588;2022-08-21T00:09:58;35.40;30.40;18.20
14880;PMS7003;7533;51.278;12.588;2022-08-21T00:15:01;35.00;29.40;17.00
14880;PMS7003;7533;51.278;12.588;2022-08-21T00:20:09;28.20;27.20;16.60
14880;PMS7003;7533;51.278;12.588;2022-08-21T00:25:15;39.20;29.60;17.80
14880;PMS7003;7533;51.278;12.588;2022-08-21T00:30:25;35.80;29.80;17.40
14880;PMS7003;7533;51.278;12.588;2022-08-21T00:35:29;29.60;27.60;16.80
14880;PMS7003;7533;51.278;12.588;2022-08-21T00:40:37;39.80;31.00;19.00
14880;PMS7003;7533;51.278;12.588;2022-08-21T00:45:53;35.60;29.20;18.60
14880;PMS7003;7533;51.278;12.588;2022-08-21T00:50:58;30.60;27.60;17.40
14880;PMS7003;7533;51.278;12.588;2022-08-21T00:56:05;32.20;28.40;16.40
14880;PMS7003;7533;51.278;12.588;2022-08-21T01:01:11;31.20;28.80;17.80
14880;PMS7003;7533;51.278;12.588;2022-08-21T01:06:14;29.80;27.00;16.20
14880;PMS7003;7533;51.278;12.588;2022-08-21T01:11:19;31.20;27.60;16.60
14880;PMS7003;7533;51.278;12.588;2022-08-21T01:16:23;31.60;26.20;16.40
14880;PMS7003;7533;51.278;12.588;2022-08-21T01:21:27;28.20;25.80;15.60
14880;PMS7003;7533;51.278;12.588;2022-08-21T01:26:31;30.20;26.60;16.40
14880;PMS7003;7533;51.278;12.588;2022-08-21T01:31:37;26.40;25.20;15.80
14880;PMS7003;7533;51.278;12.588;2022-08-21T01:36:42;24.40;22.20;14.60
14880;PMS7003;7533;51.278;12.588;2022-08-21T01:41:45;26.80;23.40;14.40
14880;PMS7003;7533;51.278;12.588;2022-08-21T01:46:48;20.25;18.75;13.00
14880;PMS7003;7533;51.278;12.588;2022-08-21T01:51:52;23.00;20.75;13.00
14880;PMS7003;7533;51.278;12.588;2022-08-21T01:56:56;20.00;17.75;11.75
14880;PMS7003;7533;51.278;12.588;2022-08-21T02:02:01;22.75;21.00;11.50
14880;PMS7003;7533;51.278;12.588;2022-08-21T02:07:06;23.00;19.75;12.00
14880;PMS7003;7533;51.278;12.588;2022-08-21T02:12:10;18.75;18.25;11.50
14880;PMS7003;7533;51.278;12.588;2022-08-21T02:17:13;16.75;14.75;9.00
14880;PMS7003;7533;51.278;12.588;2022-08-21T02:22:17;15.50;14.25;9.75
14880;PMS7003;7533;51.278;12.588;2022-08-21T02:27:21;16.25;12.75;8.00
14880;PMS7003;7533;51.278;12.588;2022-08-21T02:32:27;14.25;11.00;7.00
14880;PMS7003;7533;51.278;12.588;2022-08-21T02:37:31;15.50;12.00;8.00
14880;PMS7003;7533;51.278;12.588;2022-08-21T02:42:34;15.50;14.75;9.25
14880;PMS7003;7533;51.278;12.588;2022-08-21T02:47:37;15.00;14.00;9.00
14880;PMS7003;7533;51.278;12.588;2022-08-21T02:52:42;13.50;13.25;8.00
14880;PMS7003;7533;51.278;12.588;2022-08-21T02:57:52;14.50;13.50;8.75
14880;PMS7003;7533;51.278;12.588;2022-08-21T03:02:55;12.00;10.25;6.75
14880;PMS7003;7533;51.278;12.588;2022-08-21T03:08:01;11.00;9.75;6.25
14880;PMS7003;7533;51.278;12.588;2022-08-21T03:13:10;11.00;9.50;7.00
14880;PMS7003;7533;51.278;12.588;2022-08-21T03:18:14;10.25;9.75;7.00
14880;PMS7003;7533;51.278;12.588;2022-08-21T03:23:18;9.00;9.00;6.50
14880;PMS7003;7533;51.278;12.588;2022-08-21T03:28:21;10.75;9.00;6.50
14880;PMS7003;7533;51.278;12.588;2022-08-21T03:33:24;9.25;8.75;5.75
14880;PMS7003;7533;51.278;12.588;2022-08-21T03:38:30;9.50;8.00;5.00
14880;PMS7003;7533;51.278;12.588;2022-08-21T03:43:34;5.75;5.75;4.00
14880;PMS7003;7533;51.278;12.588;2022-08-21T03:48:38;7.00;7.00;5.00
14880;PMS7003;7533;51.278;12.588;2022-08-21T03:53:42;8.00;7.00;4.75
14880;PMS7003;7533;51.278;12.588;2022-08-21T03:58:46;8.50;8.50;5.00
14880;PMS7003;7533;51.278;12.588;2022-08-21T04:03:49;11.25;9.25;5.00
14880;PMS7003;7533;51.278;12.588;2022-08-21T04:08:53;11.25;8.50;6.50
14880;PMS7003;7533;51.278;12.588;2022-08-21T04:13:56;7.00;7.00;4.50
14880;PMS7003;7533;51.278;12.588;2022-08-21T04:18:59;8.75;8.50;5.50
14880;PMS7003;7533;51.278;12.588;2022-08-21T04:24:04;11.25;8.25;5.50
14880;PMS7003;7533;51.278;12.588;2022-08-21T04:29:08;6.75;6.75;4.00
14880;PMS7003;7533;51.278;12.588;2022-08-21T04:34:11;8.25;8.25;5.00
14880;PMS7003;7533;51.278;12.588;2022-08-21T04:39:16;5.75;5.75;4.00
14880;PMS7003;7533;51.278;12.588;2022-08-21T04:44:19;10.25;9.75;5.00
14880;PMS7003;7533;51.278;12.588;2022-08-21T04:49:22;7.00;6.25;4.00
14880;PMS7003;7533;51.278;12.588;2022-08-21T04:54:26;11.25;10.25;6.25
14880;PMS7003;7533;51.278;12.588;2022-08-21T04:59:30;9.50;8.75;5.25
14880;PMS7003;7533;51.278;12.588;2022-08-21T05:04:38;7.50;7.00;3.75
14880;PMS7003;7533;51.278;12.588;2022-08-21T05:09:45;6.75;6.75;4.75
14880;PMS7003;7533;51.278;12.588;2022-08-21T05:14:48;9.00;8.00;4.50
14880;PMS7003;7533;51.278;12.588;2022-08-21T05:19:51;9.50;8.00;4.75
14880;PMS7003;7533;51.278;12.588;2022-08-21T05:24:56;7.00;7.00;4.00
14880;PMS7003;7533;51.278;12.588;2022-08-21T05:29:59;7.50;7.25;4.75
14880;PMS7003;7533;51.278;12.588;2022-08-21T05:35:02;8.50;8.25;5.00
14880;PMS7003;7533;51.278;12.588;2022-08-21T05:40:08;6.25;6.25;4.00
14880;PMS7003;7533;51.278;12.588;2022-08-21T05:45:24;7.25;7.25;5.00
14880;PMS7003;7533;51.278;12.588;2022-08-21T05:50:44;8.25;8.25;5.00
14880;PMS7003;7533;51.278;12.588;2022-08-21T05:55:49;7.50;7.50;4.25
14880;PMS7003;7533;51.278;12.588;2022-08-21T06:00:53;9.75;8.75;5.00
14880;PMS7003;7533;51.278;12.588;2022-08-21T06:05:55;7.50;6.50;4.50
14880;PMS7003;7533;51.278;12.588;2022-08-21T06:11:01;8.00;7.50;5.00
14880;PMS7003;7533;51.278;12.588;2022-08-21T06:16:06;5.00;4.75;3.25
14880;PMS7003;7533;51.278;12.588;2022-08-21T06:21:10;9.25;6.50;3.75
14880;PMS7003;7533;51.278;12.588;2022-08-21T06:26:15;5.00;5.00;4.00
14880;PMS7003;7533;51.278;12.588;2022-08-21T06:31:20;15.50;15.50;12.00
14880;PMS7003;7533;51.278;12.588;2022-08-21T06:36:25;7.25;7.25;5.00
14880;PMS7003;7533;51.278;12.588;2022-08-21T06:41:29;6.50;6.50;3.75
14880;PMS7003;7533;51.278;12.588;2022-08-21T06:46:39;9.75;9.75;5.00
14880;PMS7003;7533;51.278;12.588;2022-08-21T06:51:44;8.50;7.00;5.00
14880;PMS7003;7533;51.278;12.588;2022-08-21T06:56:49;5.50;5.50;3.50
14880;PMS7003;7533;51.278;12.588;2022-08-21T07:01:52;8.50;8.00;5.00
14880;PMS7003;7533;51.278;12.588;2022-08-21T07:06:55;6.50;6.00;4.25
14880;PMS7003;7533;51.278;12.588;2022-08-21T07:11:59;9.00;7.75;5.00
14880;PMS7003;7533;51.278;12.588;2022-08-21T07:17:03;8.00;7.75;5.25
14880;PMS7003;7533;51.278;12.588;2022-08-21T07:22:06;8.25;8.00;5.25
14880;PMS7003;7533;51.278;12.588;2022-08-21T07:27:11;8.25;8.00;5.50
14880;PMS7003;7533;51.278;12.588;2022-08-21T07:32:16;8.75;7.75;5.00
14880;PMS7003;7533;51.278;12.588;2022-08-21T07:37:21;14.50;11.00;7.75
14880;PMS7003;7533;51.278;12.588;2022-08-21T07:42:25;8.25;7.75;4.75
14880;PMS7003;7533;51.278;12.588;2022-08-21T07:47:28;7.50;6.75;4.00
14880;PMS7003;7533;51.278;12.588;2022-08-21T07:52:43;7.00;7.00;4.00
14880;PMS7003;7533;51.278;12.588;2022-08-21T07:57:48;8.50;6.50;4.00
14880;PMS7003;7533;51.278;12.588;2022-08-21T08:02:51;10.25;9.50;5.00
14880;PMS7003;7533;51.278;12.588;2022-08-21T08:07:55;6.25;6.25;3.50
14880;PMS7003;7533;51.278;12.588;2022-08-21T08:13:00;9.00;7.00;4.00
14880;PMS7003;7533;51.278;12.588;2022-08-21T08:18:04;9.50;8.00;5.00
14880;PMS7003;7533;51.278;12.588;2022-08-21T08:23:07;6.50;6.50;4.00
14880;PMS7003;7533;51.278;12.588;2022-08-21T08:28:13;8.25;6.00;4.00
14880;PMS7003;7533;51.278;12.588;2022-08-21T08:33:18;5.75;5.50;4.00
14880;PMS7003;7533;51.278;12.588;2022-08-21T08:38:21;7.00;6.75;4.50
14880;PMS7003;7533;51.278;12.588;2022-08-21T08:43:27;9.75;8.25;5.00
14880;PMS7003;7533;51.278;12.588;2022-08-21T08:48:36;8.25;6.25;4.75
14880;PMS7003;7533;51.278;12.588;2022-08-21T08:53:55;9.75;9.25;5.00
14880;PMS7003;7533;51.278;12.588;2022-08-21T08:59:05;5.50;5.00;3.00
14880;PMS7003;7533;51.278;12.588;2022-08-21T09:04:15;10.00;8.00;6.00
14880;PMS7003;7533;51.278;12.588;2022-08-21T09:09:25;6.50;6.00;4.00
14880;PMS7003;7533;51.278;12.588;2022-08-21T09:14:47;6.00;5.25;3.75
14880;PMS7003;7533;51.278;12.588;2022-08-21T09:20:02;22.75;19.75;15.00
14880;PMS7003;7533;51.278;12.588;2022-08-21T09:25:16;10.25;9.00;5.00
14880;PMS7003;7533;51.278;12.588;2022-08-21T09:30:27;6.00;6.00;5.00
14880;PMS7003;7533;51.278;12.588;2022-08-21T09:35:32;6.00;5.25;3.50
14880;PMS7003;7533;51.278;12.588;2022-08-21T09:40:37;4.25;4.00;3.00
14880;PMS7003;7533;51.278;12.588;2022-08-21T09:45:44;5.50;4.50;2.25
14880;PMS7003;7533;51.278;12.588;2022-08-21T09:50:48;8.50;6.00;3.25
14880;PMS7003;7533;51.278;12.588;2022-08-21T09:55:53;5.50;4.75;2.75
14880;PMS7003;7533;51.278;12.588;2022-08-21T10:01:18;3.75;3.75;3.00
14880;PMS7003;7533;51.278;12.588;2022-08-21T10:06:24;5.50;5.00;3.00
14880;PMS7003;7533;51.278;12.588;2022-08-21T10:11:29;4.75;4.75;3.00
14880;PMS7003;7533;51.278;12.588;2022-08-21T10:16:37;5.75;4.75;2.25
14880;PMS7003;7533;51.278;12.588;2022-08-21T10:21:55;4.25;4.25;2.00
14880;PMS7003;7533;51.278;12.588;2022-08-21T10:27:11;6.50;5.50;4.00
14880;PMS7003;7533;51.278;12.588;2022-08-21T10:32:37;6.50;5.00;3.50
14880;PMS7003;7533;51.278;12.588;2022-08-21T10:37:52;4.00;3.50;2.50
14880;PMS7003;7533;51.278;12.588;2022-08-21T10:43:13;23.00;19.25;11.75
14880;PMS7003;7533;51.278;12.588;2022-08-21T10:48:27;42.80;33.80;20.00
14880;PMS7003;7533;51.278;12.588;2022-08-21T10:53:45;33.20;28.60;15.40
14880;PMS7003;7533;51.278;12.588;2022-08-21T10:59:08;10.00;9.00;6.00
14880;PMS7003;7533;51.278;12.588;2022-08-21T11:04:30;22.25;19.75;12.00
14880;PMS7003;7533;51.278;12.588;2022-08-21T11:09:50;22.50;17.25;10.50
14880;PMS7003;7533;51.278;12.588;2022-08-21T11:14:58;13.50;11.00;7.00
14880;PMS7003;7533;51.278;12.588;2022-08-21T11:20:07;13.75;11.00;5.00
14880;PMS7003;7533;51.278;12.588;2022-08-21T11:25:17;8.00;6.25;3.75
14880;PMS7003;7533;51.278;12.588;2022-08-21T11:30:26;6.50;5.25;4.00
14880;PMS7003;7533;51.278;12.588;2022-08-21T11:35:42;6.00;5.50;3.00
14880;PMS7003;7533;51.278;12.588;2022-08-21T11:40:54;6.00;5.25;4.00
14880;PMS7003;7533;51.278;12.588;2022-08-21T11:46:10;5.00;5.00;3.25
14880;PMS7003;7533;51.278;12.588;2022-08-21T11:51:30;5.00;4.75;4.00
14880;PMS7003;7533;51.278;12.588;2022-08-21T11:56:37;7.00;5.50;3.75
14880;PMS7003;7533;51.278;12.588;2022-08-21T12:01:44;5.25;4.00;2.75
14880;PMS7003;7533;51.278;12.588;2022-08-21T12:06:49;5.00;5.00;3.50
14880;PMS7003;7533;51.278;12.588;2022-08-21T12:12:00;4.50;4.00;3.00
14880;PMS7003;7533;51.278;12.588;2022-08-21T12:17:07;5.50;4.50;3.00
14880;PMS7003;7533;51.278;12.588;2022-08-21T12:22:22;5.25;4.50;3.00
14880;PMS7003;7533;51.278;12.588;2022-08-21T12:27:44;4.00;4.00;3.00
14880;PMS7003;7533;51.278;12.588;2022-08-21T12:32:55;5.25;5.25;3.00
14880;PMS7003;7533;51.278;12.588;2022-08-21T12:38:04;5.25;5.25;3.50
14880;PMS7003;7533;51.278;12.588;2022-08-21T12:43:13;5.50;5.50;3.25
14880;PMS7003;7533;51.278;12.588;2022-08-21T12:48:23;5.25;4.25;2.75
14880;PMS7003;7533;51.278;12.588;2022-08-21T12:53:33;5.50;4.00;3.00
14880;PMS7003;7533;51.278;12.588;2022-08-21T12:58:45;5.67;5.67;4.00
14880;PMS7003;7533;51.278;12.588;2022-08-21T13:03:49;5.00;5.00;3.00
14880;PMS7003;7533;51.278;12.588;2022-08-21T13:09:08;5.25;5.25;3.00
14880;PMS7003;7533;51.278;12.588;2022-08-21T13:14:23;4.75;4.75;3.00
14880;PMS7003;7533;51.278;12.588;2022-08-21T13:19:34;6.00;5.00;4.00
14880;PMS7003;7533;51.278;12.588;2022-08-21T13:24:38;5.75;4.00;2.00
14880;PMS7003;7533;51.278;12.588;2022-08-21T13:29:44;4.00;4.00;2.75
14880;PMS7003;7533;51.278;12.588;2022-08-21T13:34:54;6.50;4.75;3.00
14880;PMS7003;7533;51.278;12.588;2022-08-21T13:40:00;9.25;5.25;3.25
14880;PMS7003;7533;51.278;12.588;2022-08-21T13:45:04;4.00;4.00;3.00
14880;PMS7003;7533;51.278;12.588;2022-08-21T13:50:15;6.00;5.00;3.00
14880;PMS7003;7533;51.278;12.588;2022-08-21T13:55:23;5.00;5.00;3.00
14880;PMS7003;7533;51.278;12.588;2022-08-21T14:00:27;5.00;4.00;3.00
14880;PMS7003;7533;51.278;12.588;2022-08-21T14:05:33;4.00;4.00;2.00
14880;PMS7003;7533;51.278;12.588;2022-08-21T14:10:42;6.25;5.25;3.00
14880;PMS7003;7533;51.278;12.588;2022-08-21T14:15:46;5.75;5.75;3.75
14880;PMS7003;7533;51.278;12.588;2022-08-21T14:21:04;5.25;5.25;3.00
14880;PMS7003;7533;51.278;12.588;2022-08-21T14:26:09;5.50;4.50;3.00
14880;PMS7003;7533;51.278;12.588;2022-08-21T14:31:14;4.50;4.50;3.00
14880;PMS7003;7533;51.278;12.588;2022-08-21T14:36:19;5.00;5.00;3.75
14880;PMS7003;7533;51.278;12.588;2022-08-21T14:41:25;5.00;4.75;3.00
14880;PMS7003;7533;51.278;12.588;2022-08-21T14:46:30;5.00;5.00;3.00
14880;PMS7003;7533;51.278;12.588;2022-08-21T14:51:41;5.25;4.75;3.00
14880;PMS7003;7533;51.278;12.588;2022-08-21T14:56:56;5.50;5.50;3.25
14880;PMS7003;7533;51.278;12.588;2022-08-21T15:02:00;4.75;4.75;2.50
14880;PMS7003;7533;51.278;12.588;2022-08-21T15:07:05;6.00;6.00;3.00
14880;PMS7003;7533;51.278;12.588;2022-08-21T15:12:09;5.25;4.25;2.75
14880;PMS7003;7533;51.278;12.588;2022-08-21T15:17:15;5.00;5.00;3.00
14880;PMS7003;7533;51.278;12.588;2022-08-21T15:22:19;6.50;5.75;3.00
14880;PMS7003;7533;51.278;12.588;2022-08-21T15:27:30;4.75;4.00;2.00
14880;PMS7003;7533;51.278;12.588;2022-08-21T15:32:33;5.75;5.25;4.00
14880;PMS7003;7533;51.278;12.588;2022-08-21T15:37:37;6.00;4.75;3.75
14880;PMS7003;7533;51.278;12.588;2022-08-21T15:42:42;6.00;5.00;3.75
14880;PMS7003;7533;51.278;12.588;2022-08-21T15:47:49;4.25;4.25;3.00
14880;PMS7003;7533;51.278;12.588;2022-08-21T15:52:54;4.50;3.25;2.50
14880;PMS7003;7533;51.278;12.588;2022-08-21T15:58:07;5.00;5.00;3.50
14880;PMS7003;7533;51.278;12.588;2022-08-21T16:03:17;4.75;4.75;3.00
14880;PMS7003;7533;51.278;12.588;2022-08-21T16:08:24;6.00;5.00;3.00
14880;PMS7003;7533;51.278;12.588;2022-08-21T16:13:32;4.50;4.50;2.75
14880;PMS7003;7533;51.278;12.588;2022-08-21T16:18:40;6.00;5.50;3.50
14880;PMS7003;7533;51.278;12.588;2022-08-21T16:23:43;4.50;4.00;3.00
14880;PMS7003;7533;51.278;12.588;2022-08-21T16:28:48;5.25;5.25;3.25
14880;PMS7003;7533;51.278;12.588;2022-08-21T16:33:56;5.75;5.75;4.00
14880;PMS7003;7533;51.278;12.588;2022-08-21T16:39:00;5.50;5.50;4.50
14880;PMS7003;7533;51.278;12.588;2022-08-21T16:44:05;4.75;4.50;3.25
14880;PMS7003;7533;51.278;12.588;2022-08-21T16:49:11;6.75;6.50;4.75
14880;PMS7003;7533;51.278;12.588;2022-08-21T16:54:14;6.50;6.50;3.75
14880;PMS7003;7533;51.278;12.588;2022-08-21T16:59:18;4.00;3.50;3.25
14880;PMS7003;7533;51.278;12.588;2022-08-21T17:04:21;4.25;4.25;3.00
14880;PMS7003;7533;51.278;12.588;2022-08-21T17:09:26;3.75;3.75;3.00
14880;PMS7003;7533;51.278;12.588;2022-08-21T17:14:30;5.25;5.25;4.00
14880;PMS7003;7533;51.278;12.588;2022-08-21T17:19:33;5.25;5.25;4.00
14880;PMS7003;7533;51.278;12.588;2022-08-21T17:24:36;5.50;5.50;3.00
14880;PMS7003;7533;51.278;12.588;2022-08-21T17:29:40;7.00;5.50;4.00
14880;PMS7003;7533;51.278;12.588;2022-08-21T17:34:43;6.50;6.50;4.25
14880;PMS7003;7533;51.278;12.588;2022-08-21T17:39:47;8.25;7.25;4.25
14880;PMS7003;7533;51.278;12.588;2022-08-21T17:44:51;6.00;6.00;3.75
14880;PMS7003;7533;51.278;12.588;2022-08-21T17:49:56;5.75;5.75;4.00
14880;PMS7003;7533;51.278;12.588;2022-08-21T17:54:59;5.00;5.00;3.75
14880;PMS7003;7533;51.278;12.588;2022-08-21T18:00:04;7.25;6.00;3.50
14880;PMS7003;7533;51.278;12.588;2022-08-21T18:05:12;6.25;6.00;3.75
14880;PMS7003;7533;51.278;12.588;2022-08-21T18:10:15;5.75;5.50;3.25
14880;PMS7003;7533;51.278;12.588;2022-08-21T18:15:20;5.00;5.00;4.00
14880;PMS7003;7533;51.278;12.588;2022-08-21T18:20:23;6.75;5.25;4.00
14880;PMS7003;7533;51.278;12.588;2022-08-21T18:25:26;5.00;4.00;3.00
14880;PMS7003;7533;51.278;12.588;2022-08-21T18:30:31;7.25;5.00;3.75
14880;PMS7003;7533;51.278;12.588;2022-08-21T18:35:38;5.00;5.00;3.25
14880;PMS7003;7533;51.278;12.588;2022-08-21T18:40:43;7.50;7.50;5.25
14880;PMS7003;7533;51.278;12.588;2022-08-21T18:45:49;8.75;7.50;5.50
14880;PMS7003;7533;51.278;12.588;2022-08-21T18:50:52;8.00;8.00;5.25
14880;PMS7003;7533;51.278;12.588;2022-08-21T18:55:55;7.25;7.25;5.00
14880;PMS7003;7533;51.278;12.588;2022-08-21T19:01:20;7.25;6.50;4.50
14880;PMS7003;7533;51.278;12.588;2022-08-21T19:06:24;8.50;7.25;5.50
14880;PMS7003;7533;51.278;12.588;2022-08-21T19:11:27;6.00;6.00;4.00
14880;PMS7003;7533;51.278;12.588;2022-08-21T19:16:32;8.50;7.25;4.50
14880;PMS7003;7533;51.278;12.588;2022-08-21T19:21:36;9.25;8.00;5.50
14880;PMS7003;7533;51.278;12.588;2022-08-21T19:26:39;7.25;7.00;4.25
14880;PMS7003;7533;51.278;12.588;2022-08-21T19:31:44;8.50;8.00;5.00
14880;PMS7003;7533;51.278;12.588;2022-08-21T19:36:48;8.00;7.00;4.25
14880;PMS7003;7533;51.278;12.588;2022-08-21T19:41:53;5.50;5.00;4.25
14880;PMS7003;7533;51.278;12.588;2022-08-21T19:46:59;6.00;6.00;4.00
14880;PMS7003;7533;51.278;12.588;2022-08-21T19:52:06;7.00;7.00;4.75
14880;PMS7003;7533;51.278;12.588;2022-08-21T19:57:14;6.00;6.00;5.00
14880;PMS7003;7533;51.278;12.588;2022-08-21T20:02:19;6.75;6.50;4.75
14880;PMS7003;7533;51.278;12.588;2022-08-21T20:07:22;6.25;6.25;5.50
14880;PMS7003;7533;51.278;12.588;2022-08-21T20:12:27;8.00;7.00;6.00
14880;PMS7003;7533;51.278;12.588;2022-08-21T20:17:31;8.50;8.00;6.00
14880;PMS7003;7533;51.278;12.588;2022-08-21T20:22:34;10.00;8.75;5.50
14880;PMS7003;7533;51.278;12.588;2022-08-21T20:27:37;13.75;12.25;7.25
14880;PMS7003;7533;51.278;12.588;2022-08-21T20:32:42;14.25;11.50;9.00
14880;PMS7003;7533;51.278;12.588;2022-08-21T20:37:45;12.00;10.50;7.50
14880;PMS7003;7533;51.278;12.588;2022-08-21T20:42:59;14.00;13.00;8.50
14880;PMS7003;7533;51.278;12.588;2022-08-21T20:48:05;15.75;14.50;10.75
14880;PMS7003;7533;51.278;12.588;2022-08-21T20:53:19;17.60;17.00;12.20
14880;PMS7003;7533;51.278;12.588;2022-08-21T20:58:53;27.40;24.00;16.00
14880;PMS7003;7533;51.278;12.588;2022-08-21T21:04:05;22.20;21.40;15.80
14880;PMS7003;7533;51.278;12.588;2022-08-21T21:09:28;23.40;21.00;14.20
14880;PMS7003;7533;51.278;12.588;2022-08-21T21:14:41;23.00;21.40;15.00
14880;PMS7003;7533;51.278;12.588;2022-08-21T21:19:49;22.20;19.80;13.40
14880;PMS7003;7533;51.278;12.588;2022-08-21T21:24:57;19.40;19.40;12.40
14880;PMS7003;7533;51.278;12.588;2022-08-21T21:30:07;17.80;15.60;11.40
14880;PMS7003;7533;51.278;12.588;2022-08-21T21:35:16;18.40;15.80;10.80
14880;PMS7003;7533;51.278;12.588;2022-08-21T21:40:39;16.00;15.00;10.20
14880;PMS7003;7533;51.278;12.588;2022-08-21T21:45:55;15.25;15.00;10.00
14880;PMS7003;7533;51.278;12.588;2022-08-21T21:51:13;13.50;13.25;10.00
14880;PMS7003;7533;51.278;12.588;2022-08-21T21:56:31;14.50;13.50;10.00
14880;PMS7003;7533;51.278;12.588;2022-08-21T22:01:43;16.75;13.25;9.75
14880;PMS7003;7533;51.278;12.588;2022-08-21T22:06:54;14.50;13.50;10.25
14880;PMS7003;7533;51.278;12.588;2022-08-21T22:12:06;14.00;12.75;9.00
14880;PMS7003;7533;51.278;12.588;2022-08-21T22:17:29;14.25;11.75;8.75
14880;PMS7003;7533;51.278;12.588;2022-08-21T22:22:37;14.25;12.50;9.25
14880;PMS7003;7533;51.278;12.588;2022-08-21T22:27:40;14.00;12.75;9.00
14880;PMS7003;7533;51.278;12.588;2022-08-21T22:32:46;11.00;11.00;8.00
14880;PMS7003;7533;51.278;12.588;2022-08-21T22:37:52;12.25;11.00;8.50
14880;PMS7003;7533;51.278;12.588;2022-08-21T22:42:58;13.75;12.75;9.00
14880;PMS7003;7533;51.278;12.588;2022-08-21T22:48:03;10.25;10.25;6.25
14880;PMS7003;7533;51.278;12.588;2022-08-21T22:53:31;10.50;9.50;6.50
14880;PMS7003;7533;51.278;12.588;2022-08-21T22:58:37;10.50;10.50;7.50
14880;PMS7003;7533;51.278;12.588;2022-08-21T23:03:55;9.00;9.00;7.00
14880;PMS7003;7533;51.278;12.588;2022-08-21T23:09:02;9.75;9.00;6.50
14880;PMS7003;7533;51.278;12.588;2022-08-21T23:14:11;9.00;8.00;6.00
14880;PMS7003;7533;51.278;12.588;2022-08-21T23:19:16;8.50;8.50;5.50
14880;PMS7003;7533;51.278;12.588;2022-08-21T23:24:44;11.00;9.75;6.00
14880;PMS7003;7533;51.278;12.588;2022-08-21T23:30:02;9.50;8.50;6.00
14880;PMS7003;7533;51.278;12.588;2022-08-21T23:35:09;7.50;7.50;4.50
14880;PMS7003;7533;51.278;12.588;2022-08-21T23:40:22;9.75;8.25;6.50
14880;PMS7003;7533;51.278;12.588;2022-08-21T23:45:37;11.00;8.00;6.50
14880;PMS7003;7533;51.278;12.588;2022-08-21T23:50:50;10.00;9.50;7.00
14880;PMS7003;7533;51.278;12.588;2022-08-21T23:56:08;9.75;7.50;6.00
